sensor_id;sensor_type;location;lat;lon;timestamp;P1;durP1;ratioP1;P2;durP2;ratioP2
10699;SDS011;5401;41.986;21.452;2022-11-03T00:01:12;152.87;;;52.03;;
10699;SDS011;5401;41.986;21.452;2022-11-03T00:03:40;68.30;;;33.03;;
10699;SDS011;5401;41.986;21.452;2022-11-03T00:06:07;73.60;;;34.57;;
10699;SDS011;5401;41.986;21.452;2022-11-03T00:08:36;165.77;;;59.70;;
10699;SDS011;5401;41.986;21.452;2022-11-03T00:11:08;80.80;;;37.80;;
10699;SDS011;5401;41.986;21.452;2022-11-03T00:13:37;67.33;;;35.47;;
10699;SDS011;5401;41.986;21.452;2022-11-03T00:16:06;125.80;;;48.33;;
10699;SDS011;5401;41.986;21.452;2022-11-03T00:18:37;64.60;;;34.23;;
10699;SDS011;5401;41.986;21.452;2022-11-03T00:21:05;63.90;;;33.63;;
10699;SDS011;5401;41.986;21.452;2022-11-03T00:23:35;173.80;;;64.53;;
10699;SDS011;5401;41.986;21.452;2022-11-03T00:26:04;63.33;;;33.93;;
10699;SDS011;5401;41.986;21.452;2022-11-03T00:28:33;68.93;;;34.47;;
10699;SDS011;5401;41.986;21.452;2022-11-03T00:31:04;136.33;;;51.77;;
10699;SDS011;5401;41.986;21.452;2022-11-03T00:33:33;65.40;;;31.77;;
10699;SDS011;5401;41.986;21.452;2022-11-03T00:36:03;67.13;;;32.90;;
10699;SDS011;5401;41.986;21.452;2022-11-03T00:38:31;168.07;;;57.70;;
10699;SDS011;5401;41.986;21.452;2022-11-03T00:41:01;65.70;;;31.40;;
10699;SDS011;5401;41.986;21.452;2022-11-03T00:43:30;79.57;;;35.70;;
10699;SDS011;5401;41.986;21.452;2022-11-03T00:45:58;135.93;;;55.93;;
10699;SDS011;5401;41.986;21.452;2022-11-03T00:48:27;77.07;;;34.40;;
10699;SDS011;5401;41.986;21.452;2022-11-03T00:51:01;67.30;;;33.47;;
10699;SDS011;5401;41.986;21.452;2022-11-03T00:53:35;194.90;;;64.93;;
10699;SDS011;5401;41.986;21.452;2022-11-03T00:56:03;71.50;;;33.00;;
10699;SDS011;5401;41.986;21.452;2022-11-03T00:58:32;80.70;;;35.70;;
10699;SDS011;5401;41.986;21.452;2022-11-03T01:01:00;159.53;;;58.27;;
10699;SDS011;5401;41.986;21.452;2022-11-03T01:03:30;81.53;;;36.60;;
10699;SDS011;5401;41.986;21.452;2022-11-03T01:05:58;71.33;;;35.30;;
10699;SDS011;5401;41.986;21.452;2022-11-03T01:08:45;142.53;;;54.67;;
10699;SDS011;5401;41.986;21.452;2022-11-03T01:11:16;77.73;;;38.50;;
10699;SDS011;5401;41.986;21.452;2022-11-03T01:14:01;207.10;;;76.53;;
10699;SDS011;5401;41.986;21.452;2022-11-03T01:16:30;73.90;;;38.80;;
10699;SDS011;5401;41.986;21.452;2022-11-03T01:18:57;85.20;;;40.20;;
10699;SDS011;5401;41.986;21.452;2022-11-03T01:21:25;229.40;;;84.93;;
10699;SDS011;5401;41.986;21.452;2022-11-03T01:23:54;77.93;;;36.07;;
10699;SDS011;5401;41.986;21.452;2022-11-03T01:26:22;74.30;;;38.77;;
10699;SDS011;5401;41.986;21.452;2022-11-03T01:28:49;164.00;;;64.83;;
10699;SDS011;5401;41.986;21.452;2022-11-03T01:31:17;80.73;;;39.57;;
10699;SDS011;5401;41.986;21.452;2022-11-03T01:33:48;76.93;;;37.90;;
10699;SDS011;5401;41.986;21.452;2022-11-03T01:36:16;113.67;;;46.90;;
10699;SDS011;5401;41.986;21.452;2022-11-03T01:38:44;93.17;;;44.60;;
10699;SDS011;5401;41.986;21.452;2022-11-03T01:41:14;77.93;;;36.47;;
10699;SDS011;5401;41.986;21.452;2022-11-03T01:43:43;80.27;;;38.63;;
10699;SDS011;5401;41.986;21.452;2022-11-03T01:46:14;122.77;;;47.47;;
10699;SDS011;5401;41.986;21.452;2022-11-03T01:48:45;98.37;;;41.27;;
10699;SDS011;5401;41.986;21.452;2022-11-03T01:51:16;85.50;;;38.20;;
10699;SDS011;5401;41.986;21.452;2022-11-03T01:53:48;75.77;;;36.10;;
10699;SDS011;5401;41.986;21.452;2022-11-03T01:56:20;74.27;;;35.93;;
10699;SDS011;5401;41.986;21.452;2022-11-03T01:58:50;126.67;;;50.20;;
10699;SDS011;5401;41.986;21.452;2022-11-03T02:01:20;54.60;;;30.70;;
10699;SDS011;5401;41.986;21.452;2022-11-03T02:03:50;67.57;;;32.20;;
10699;SDS011;5401;41.986;21.452;2022-11-03T02:06:21;126.93;;;45.97;;
10699;SDS011;5401;41.986;21.452;2022-11-03T02:08:52;65.73;;;31.60;;
10699;SDS011;5401;41.986;21.452;2022-11-03T02:11:26;66.03;;;33.43;;
10699;SDS011;5401;41.986;21.452;2022-11-03T02:14:10;65.00;;;31.53;;
10699;SDS011;5401;41.986;21.452;2022-11-03T02:16:38;72.43;;;33.60;;
10699;SDS011;5401;41.986;21.452;2022-11-03T02:19:11;140.13;;;53.47;;
10699;SDS011;5401;41.986;21.452;2022-11-03T02:21:47;74.77;;;34.83;;
10699;SDS011;5401;41.986;21.452;2022-11-03T02:24:26;70.53;;;32.63;;
10699;SDS011;5401;41.986;21.452;2022-11-03T02:27:03;66.23;;;31.50;;
10699;SDS011;5401;41.986;21.452;2022-11-03T02:29:31;63.00;;;30.27;;
10699;SDS011;5401;41.986;21.452;2022-11-03T02:32:01;118.03;;;43.93;;
10699;SDS011;5401;41.986;21.452;2022-11-03T02:34:34;57.83;;;28.57;;
10699;SDS011;5401;41.986;21.452;2022-11-03T02:37:09;57.53;;;27.23;;
10699;SDS011;5401;41.986;21.452;2022-11-03T02:39:42;127.50;;;46.57;;
10699;SDS011;5401;41.986;21.452;2022-11-03T02:42:14;67.77;;;30.07;;
10699;SDS011;5401;41.986;21.452;2022-11-03T02:44:44;59.23;;;30.40;;
10699;SDS011;5401;41.986;21.452;2022-11-03T02:47:13;103.83;;;40.80;;
10699;SDS011;5401;41.986;21.452;2022-11-03T02:49:44;59.67;;;28.67;;
10699;SDS011;5401;41.986;21.452;2022-11-03T02:55:00;64.20;;;30.33;;
10699;SDS011;5401;41.986;21.452;2022-11-03T02:57:35;55.47;;;28.50;;
10699;SDS011;5401;41.986;21.452;2022-11-03T03:00:09;66.60;;;29.60;;
10699;SDS011;5401;41.986;21.452;2022-11-03T03:02:38;60.93;;;30.30;;
10699;SDS011;5401;41.986;21.452;2022-11-03T03:05:11;123.10;;;47.07;;
10699;SDS011;5401;41.986;21.452;2022-11-03T03:07:43;61.00;;;30.47;;
10699;SDS011;5401;41.986;21.452;2022-11-03T03:10:13;60.90;;;29.23;;
10699;SDS011;5401;41.986;21.452;2022-11-03T03:12:45;138.27;;;50.03;;
10699;SDS011;5401;41.986;21.452;2022-11-03T03:15:15;58.93;;;30.23;;
10699;SDS011;5401;41.986;21.452;2022-11-03T03:17:47;54.63;;;27.97;;
10699;SDS011;5401;41.986;21.452;2022-11-03T03:20:19;131.07;;;45.23;;
10699;SDS011;5401;41.986;21.452;2022-11-03T03:22:54;58.10;;;26.20;;
10699;SDS011;5401;41.986;21.452;2022-11-03T03:25:24;55.43;;;28.37;;
10699;SDS011;5401;41.986;21.452;2022-11-03T03:27:59;101.27;;;38.10;;
10699;SDS011;5401;41.986;21.452;2022-11-03T03:30:32;59.67;;;27.73;;
10699;SDS011;5401;41.986;21.452;2022-11-03T03:33:02;125.00;;;43.83;;
10699;SDS011;5401;41.986;21.452;2022-11-03T03:35:33;60.20;;;27.40;;
10699;SDS011;5401;41.986;21.452;2022-11-03T03:38:06;63.57;;;27.53;;
10699;SDS011;5401;41.986;21.452;2022-11-03T03:40:37;157.97;;;52.73;;
10699;SDS011;5401;41.986;21.452;2022-11-03T03:43:09;51.23;;;26.77;;
10699;SDS011;5401;41.986;21.452;2022-11-03T03:45:40;55.03;;;25.40;;
10699;SDS011;5401;41.986;21.452;2022-11-03T03:48:10;137.30;;;45.03;;
10699;SDS011;5401;41.986;21.452;2022-11-03T03:50:39;64.73;;;30.97;;
10699;SDS011;5401;41.986;21.452;2022-11-03T03:53:10;56.93;;;27.17;;
10699;SDS011;5401;41.986;21.452;2022-11-03T03:55:39;133.50;;;45.33;;
10699;SDS011;5401;41.986;21.452;2022-11-03T03:58:11;58.10;;;25.23;;
10699;SDS011;5401;41.986;21.452;2022-11-03T04:00:40;50.10;;;24.67;;
10699;SDS011;5401;41.986;21.452;2022-11-03T04:03:11;145.30;;;47.27;;
10699;SDS011;5401;41.986;21.452;2022-11-03T04:05:42;57.50;;;26.83;;
10699;SDS011;5401;41.986;21.452;2022-11-03T04:08:10;49.47;;;24.87;;
10699;SDS011;5401;41.986;21.452;2022-11-03T04:10:38;157.47;;;55.83;;
10699;SDS011;5401;41.986;21.452;2022-11-03T04:13:27;70.53;;;34.33;;
10699;SDS011;5401;41.986;21.452;2022-11-03T04:16:12;56.00;;;31.57;;
10699;SDS011;5401;41.986;21.452;2022-11-03T04:18:57;53.03;;;26.90;;
10699;SDS011;5401;41.986;21.452;2022-11-03T04:21:42;51.07;;;26.10;;
10699;SDS011;5401;41.986;21.452;2022-11-03T04:24:27;123.10;;;42.23;;
10699;SDS011;5401;41.986;21.452;2022-11-03T04:26:55;53.00;;;24.90;;
10699;SDS011;5401;41.986;21.452;2022-11-03T04:29:28;46.83;;;24.80;;
10699;SDS011;5401;41.986;21.452;2022-11-03T04:31:56;133.37;;;45.87;;
10699;SDS011;5401;41.986;21.452;2022-11-03T04:34:23;60.03;;;27.37;;
10699;SDS011;5401;41.986;21.452;2022-11-03T04:36:51;61.33;;;28.33;;
10699;SDS011;5401;41.986;21.452;2022-11-03T04:39:18;79.33;;;33.60;;
10699;SDS011;5401;41.986;21.452;2022-11-03T04:41:46;100.90;;;39.70;;
10699;SDS011;5401;41.986;21.452;2022-11-03T04:44:14;64.60;;;31.37;;
10699;SDS011;5401;41.986;21.452;2022-11-03T04:46:44;55.20;;;28.23;;
10699;SDS011;5401;41.986;21.452;2022-11-03T04:49:13;136.83;;;47.70;;
10699;SDS011;5401;41.986;21.452;2022-11-03T04:51:47;50.80;;;27.23;;
10699;SDS011;5401;41.986;21.452;2022-11-03T04:54:17;55.20;;;26.37;;
10699;SDS011;5401;41.986;21.452;2022-11-03T04:56:47;92.70;;;39.67;;
10699;SDS011;5401;41.986;21.452;2022-11-03T04:59:15;60.03;;;27.47;;
10699;SDS011;5401;41.986;21.452;2022-11-03T05:01:44;66.90;;;31.97;;
10699;SDS011;5401;41.986;21.452;2022-11-03T05:04:13;119.07;;;44.00;;
10699;SDS011;5401;41.986;21.452;2022-11-03T05:06:43;60.30;;;28.57;;
10699;SDS011;5401;41.986;21.452;2022-11-03T05:09:16;67.53;;;29.57;;
10699;SDS011;5401;41.986;21.452;2022-11-03T05:11:47;80.70;;;33.23;;
10699;SDS011;5401;41.986;21.452;2022-11-03T05:14:15;58.90;;;27.90;;
10699;SDS011;5401;41.986;21.452;2022-11-03T05:16:47;63.00;;;30.53;;
10699;SDS011;5401;41.986;21.452;2022-11-03T05:19:17;59.43;;;29.47;;
10699;SDS011;5401;41.986;21.452;2022-11-03T05:21:47;54.37;;;26.57;;
10699;SDS011;5401;41.986;21.452;2022-11-03T05:24:16;65.77;;;29.53;;
10699;SDS011;5401;41.986;21.452;2022-11-03T05:26:50;49.37;;;25.93;;
10699;SDS011;5401;41.986;21.452;2022-11-03T05:29:20;59.73;;;28.23;;
10699;SDS011;5401;41.986;21.452;2022-11-03T05:31:53;107.87;;;41.10;;
10699;SDS011;5401;41.986;21.452;2022-11-03T05:34:28;52.33;;;26.57;;
10699;SDS011;5401;41.986;21.452;2022-11-03T05:37:05;54.80;;;26.80;;
10699;SDS011;5401;41.986;21.452;2022-11-03T05:39:49;56.53;;;26.63;;
10699;SDS011;5401;41.986;21.452;2022-11-03T05:42:19;51.23;;;25.87;;
10699;SDS011;5401;41.986;21.452;2022-11-03T05:45:01;55.73;;;25.53;;
10699;SDS011;5401;41.986;21.452;2022-11-03T05:47:33;50.13;;;25.20;;
10699;SDS011;5401;41.986;21.452;2022-11-03T05:50:10;136.37;;;45.87;;
10699;SDS011;5401;41.986;21.452;2022-11-03T05:52:42;46.00;;;24.60;;
10699;SDS011;5401;41.986;21.452;2022-11-03T05:55:19;48.20;;;24.33;;
10699;SDS011;5401;41.986;21.452;2022-11-03T05:57:51;44.97;;;23.13;;
10699;SDS011;5401;41.986;21.452;2022-11-03T06:00:29;52.77;;;25.03;;
10699;SDS011;5401;41.986;21.452;2022-11-03T06:02:59;132.13;;;43.93;;
10699;SDS011;5401;41.986;21.452;2022-11-03T06:05:27;64.90;;;26.30;;
10699;SDS011;5401;41.986;21.452;2022-11-03T06:07:59;50.13;;;25.03;;
10699;SDS011;5401;41.986;21.452;2022-11-03T06:10:30;141.03;;;45.90;;
10699;SDS011;5401;41.986;21.452;2022-11-03T06:13:03;151.23;;;101.30;;
10699;SDS011;5401;41.986;21.452;2022-11-03T06:15:37;69.13;;;31.03;;
10699;SDS011;5401;41.986;21.452;2022-11-03T06:18:12;110.23;;;39.90;;
10699;SDS011;5401;41.986;21.452;2022-11-03T06:20:48;63.10;;;27.37;;
10699;SDS011;5401;41.986;21.452;2022-11-03T06:23:18;186.10;;;59.07;;
10699;SDS011;5401;41.986;21.452;2022-11-03T06:25:47;53.23;;;24.47;;
10699;SDS011;5401;41.986;21.452;2022-11-03T06:28:17;61.93;;;27.63;;
10699;SDS011;5401;41.986;21.452;2022-11-03T06:30:46;154.10;;;47.40;;
10699;SDS011;5401;41.986;21.452;2022-11-03T06:33:17;72.30;;;29.63;;
10699;SDS011;5401;41.986;21.452;2022-11-03T06:35:48;61.50;;;27.23;;
10699;SDS011;5401;41.986;21.452;2022-11-03T06:38:20;166.63;;;56.23;;
10699;SDS011;5401;41.986;21.452;2022-11-03T06:40:50;72.40;;;30.43;;
10699;SDS011;5401;41.986;21.452;2022-11-03T06:43:19;141.73;;;98.87;;
10699;SDS011;5401;41.986;21.452;2022-11-03T06:45:50;318.37;;;194.90;;
10699;SDS011;5401;41.986;21.452;2022-11-03T06:48:22;159.43;;;69.27;;
10699;SDS011;5401;41.986;21.452;2022-11-03T06:50:52;140.50;;;73.63;;
10699;SDS011;5401;41.986;21.452;2022-11-03T06:53:20;166.33;;;58.10;;
10699;SDS011;5401;41.986;21.452;2022-11-03T06:55:51;62.97;;;25.57;;
10699;SDS011;5401;41.986;21.452;2022-11-03T06:58:24;92.63;;;43.13;;
10699;SDS011;5401;41.986;21.452;2022-11-03T07:00:57;80.60;;;32.87;;
10699;SDS011;5401;41.986;21.452;2022-11-03T07:03:29;69.77;;;39.60;;
10699;SDS011;5401;41.986;21.452;2022-11-03T07:06:00;143.13;;;67.10;;
10699;SDS011;5401;41.986;21.452;2022-11-03T07:08:38;57.53;;;28.07;;
10699;SDS011;5401;41.986;21.452;2022-11-03T07:11:10;73.68;;;35.03;;
10699;SDS011;5401;41.986;21.452;2022-11-03T07:13:40;288.40;;;149.80;;
10699;SDS011;5401;41.986;21.452;2022-11-03T07:16:11;142.37;;;89.03;;
10699;SDS011;5401;41.986;21.452;2022-11-03T07:18:40;178.03;;;124.67;;
10699;SDS011;5401;41.986;21.452;2022-11-03T07:21:29;219.87;;;112.77;;
10699;SDS011;5401;41.986;21.452;2022-11-03T07:24:03;90.37;;;40.33;;
10699;SDS011;5401;41.986;21.452;2022-11-03T07:26:39;90.87;;;39.80;;
10699;SDS011;5401;41.986;21.452;2022-11-03T07:29:07;47.67;;;24.10;;
10699;SDS011;5401;41.986;21.452;2022-11-03T07:31:41;72.10;;;31.37;;
10699;SDS011;5401;41.986;21.452;2022-11-03T07:34:11;67.23;;;31.43;;
10699;SDS011;5401;41.986;21.452;2022-11-03T07:36:43;46.77;;;25.73;;
10699;SDS011;5401;41.986;21.452;2022-11-03T07:39:12;57.83;;;29.97;;
10699;SDS011;5401;41.986;21.452;2022-11-03T07:41:44;50.13;;;26.23;;
10699;SDS011;5401;41.986;21.452;2022-11-03T07:44:12;54.27;;;26.53;;
10699;SDS011;5401;41.986;21.452;2022-11-03T07:46:42;66.83;;;33.20;;
10699;SDS011;5401;41.986;21.452;2022-11-03T07:49:14;49.10;;;26.70;;
10699;SDS011;5401;41.986;21.452;2022-11-03T07:51:50;46.73;;;27.60;;
10699;SDS011;5401;41.986;21.452;2022-11-03T07:54:20;89.70;;;38.83;;
10699;SDS011;5401;41.986;21.452;2022-11-03T07:56:51;44.23;;;25.40;;
10699;SDS011;5401;41.986;21.452;2022-11-03T07:59:21;48.10;;;26.13;;
10699;SDS011;5401;41.986;21.452;2022-11-03T08:01:53;64.13;;;32.47;;
10699;SDS011;5401;41.986;21.452;2022-11-03T08:04:23;45.53;;;26.27;;
10699;SDS011;5401;41.986;21.452;2022-11-03T08:06:53;58.80;;;29.40;;
10699;SDS011;5401;41.986;21.452;2022-11-03T08:09:21;95.53;;;40.00;;
10699;SDS011;5401;41.986;21.452;2022-11-03T08:11:48;61.30;;;33.00;;
10699;SDS011;5401;41.986;21.452;2022-11-03T08:14:16;55.90;;;30.83;;
10699;SDS011;5401;41.986;21.452;2022-11-03T08:16:44;96.63;;;41.43;;
10699;SDS011;5401;41.986;21.452;2022-11-03T08:19:11;55.50;;;33.90;;
10699;SDS011;5401;41.986;21.452;2022-11-03T08:21:40;58.03;;;31.57;;
10699;SDS011;5401;41.986;21.452;2022-11-03T08:24:08;60.93;;;33.37;;
10699;SDS011;5401;41.986;21.452;2022-11-03T08:26:35;57.07;;;35.77;;
10699;SDS011;5401;41.986;21.452;2022-11-03T08:29:03;53.63;;;31.40;;
10699;SDS011;5401;41.986;21.452;2022-11-03T08:31:30;54.33;;;29.50;;
10699;SDS011;5401;41.986;21.452;2022-11-03T08:33:58;87.70;;;39.97;;
10699;SDS011;5401;41.986;21.452;2022-11-03T08:36:25;48.53;;;26.87;;
10699;SDS011;5401;41.986;21.452;2022-11-03T08:38:54;47.70;;;28.00;;
10699;SDS011;5401;41.986;21.452;2022-11-03T08:41:22;64.43;;;33.70;;
10699;SDS011;5401;41.986;21.452;2022-11-03T08:43:49;44.13;;;26.30;;
10699;SDS011;5401;41.986;21.452;2022-11-03T08:46:17;42.30;;;23.77;;
10699;SDS011;5401;41.986;21.452;2022-11-03T08:48:44;43.27;;;24.43;;
10699;SDS011;5401;41.986;21.452;2022-11-03T08:51:12;66.10;;;29.90;;
10699;SDS011;5401;41.986;21.452;2022-11-03T08:53:41;45.23;;;24.10;;
10699;SDS011;5401;41.986;21.452;2022-11-03T08:56:10;46.67;;;22.83;;
10699;SDS011;5401;41.986;21.452;2022-11-03T08:58:39;76.10;;;30.33;;
10699;SDS011;5401;41.986;21.452;2022-11-03T09:01:07;44.53;;;22.00;;
10699;SDS011;5401;41.986;21.452;2022-11-03T09:03:34;43.57;;;21.93;;
10699;SDS011;5401;41.986;21.452;2022-11-03T09:06:02;49.70;;;27.43;;
10699;SDS011;5401;41.986;21.452;2022-11-03T09:08:29;33.23;;;21.63;;
10699;SDS011;5401;41.986;21.452;2022-11-03T09:10:57;37.30;;;22.47;;
10699;SDS011;5401;41.986;21.452;2022-11-03T09:13:26;37.93;;;24.10;;
10699;SDS011;5401;41.986;21.452;2022-11-03T09:15:53;39.63;;;22.53;;
10699;SDS011;5401;41.986;21.452;2022-11-03T09:18:21;36.90;;;22.70;;
10699;SDS011;5401;41.986;21.452;2022-11-03T09:20:48;45.10;;;24.53;;
10699;SDS011;5401;41.986;21.452;2022-11-03T09:23:16;50.67;;;25.50;;
10699;SDS011;5401;41.986;21.452;2022-11-03T09:25:43;45.37;;;22.27;;
10699;SDS011;5401;41.986;21.452;2022-11-03T09:28:11;39.27;;;21.77;;
10699;SDS011;5401;41.986;21.452;2022-11-03T09:30:39;49.60;;;26.87;;
10699;SDS011;5401;41.986;21.452;2022-11-03T09:33:07;48.57;;;23.53;;
10699;SDS011;5401;41.986;21.452;2022-11-03T09:35:34;30.20;;;19.03;;
10699;SDS011;5401;41.986;21.452;2022-11-03T09:38:03;58.53;;;25.43;;
10699;SDS011;5401;41.986;21.452;2022-11-03T09:40:32;44.90;;;21.67;;
10699;SDS011;5401;41.986;21.452;2022-11-03T09:43:01;48.80;;;21.73;;
10699;SDS011;5401;41.986;21.452;2022-11-03T09:45:29;35.13;;;20.00;;
10699;SDS011;5401;41.986;21.452;2022-11-03T09:48:00;31.20;;;19.43;;
10699;SDS011;5401;41.986;21.452;2022-11-03T09:50:28;29.73;;;19.10;;
10699;SDS011;5401;41.986;21.452;2022-11-03T09:52:55;38.97;;;18.57;;
10699;SDS011;5401;41.986;21.452;2022-11-03T09:55:24;40.13;;;23.30;;
10699;SDS011;5401;41.986;21.452;2022-11-03T09:57:53;37.63;;;19.03;;
10699;SDS011;5401;41.986;21.452;2022-11-03T10:00:23;28.73;;;16.90;;
10699;SDS011;5401;41.986;21.452;2022-11-03T10:02:51;46.10;;;20.77;;
10699;SDS011;5401;41.986;21.452;2022-11-03T10:05:22;30.20;;;18.30;;
10699;SDS011;5401;41.986;21.452;2022-11-03T10:07:51;34.10;;;18.33;;
10699;SDS011;5401;41.986;21.452;2022-11-03T10:10:22;30.33;;;19.03;;
10699;SDS011;5401;41.986;21.452;2022-11-03T10:12:50;30.83;;;16.67;;
10699;SDS011;5401;41.986;21.452;2022-11-03T10:15:18;28.37;;;18.60;;
10699;SDS011;5401;41.986;21.452;2022-11-03T10:17:48;33.70;;;18.17;;
10699;SDS011;5401;41.986;21.452;2022-11-03T10:20:16;31.27;;;17.03;;
10699;SDS011;5401;41.986;21.452;2022-11-03T10:22:46;36.90;;;17.83;;
10699;SDS011;5401;41.986;21.452;2022-11-03T10:25:27;27.60;;;17.13;;
10699;SDS011;5401;41.986;21.452;2022-11-03T10:28:12;26.97;;;16.07;;
10699;SDS011;5401;41.986;21.452;2022-11-03T10:30:52;29.83;;;16.63;;
10699;SDS011;5401;41.986;21.452;2022-11-03T10:33:27;25.93;;;15.60;;
10699;SDS011;5401;41.986;21.452;2022-11-03T10:35:57;32.90;;;17.27;;
10699;SDS011;5401;41.986;21.452;2022-11-03T10:38:27;26.37;;;15.23;;
10699;SDS011;5401;41.986;21.452;2022-11-03T10:40:57;26.23;;;15.57;;
10699;SDS011;5401;41.986;21.452;2022-11-03T10:43:36;35.33;;;17.00;;
10699;SDS011;5401;41.986;21.452;2022-11-03T10:46:11;31.60;;;16.07;;
10699;SDS011;5401;41.986;21.452;2022-11-03T10:48:41;30.30;;;16.27;;
10699;SDS011;5401;41.986;21.452;2022-11-03T10:51:10;26.90;;;15.63;;
10699;SDS011;5401;41.986;21.452;2022-11-03T10:53:40;28.07;;;15.90;;
10699;SDS011;5401;41.986;21.452;2022-11-03T10:56:08;25.43;;;16.77;;
10699;SDS011;5401;41.986;21.452;2022-11-03T10:58:37;24.27;;;14.37;;
10699;SDS011;5401;41.986;21.452;2022-11-03T11:01:04;27.23;;;14.27;;
10699;SDS011;5401;41.986;21.452;2022-11-03T11:03:33;29.27;;;13.97;;
10699;SDS011;5401;41.986;21.452;2022-11-03T11:06:05;29.77;;;16.93;;
10699;SDS011;5401;41.986;21.452;2022-11-03T11:08:48;38.20;;;16.10;;
10699;SDS011;5401;41.986;21.452;2022-11-03T11:11:19;27.53;;;16.10;;
10699;SDS011;5401;41.986;21.452;2022-11-03T11:16:50;28.40;;;13.90;;
10699;SDS011;5401;41.986;21.452;2022-11-03T11:19:19;24.43;;;12.90;;
10699;SDS011;5401;41.986;21.452;2022-11-03T11:24:56;21.27;;;12.17;;
10699;SDS011;5401;41.986;21.452;2022-11-03T11:33:45;19.33;;;11.50;;
10699;SDS011;5401;41.986;21.452;2022-11-03T11:38:59;22.23;;;11.20;;
10699;SDS011;5401;41.986;21.452;2022-11-03T11:47:23;20.00;;;9.90;;
10699;SDS011;5401;41.986;21.452;2022-11-03T11:50:02;16.77;;;10.40;;
10699;SDS011;5401;41.986;21.452;2022-11-03T11:52:57;22.23;;;11.47;;
10699;SDS011;5401;41.986;21.452;2022-11-03T11:55:31;15.53;;;9.80;;
10699;SDS011;5401;41.986;21.452;2022-11-03T11:58:04;21.43;;;10.30;;
10699;SDS011;5401;41.986;21.452;2022-11-03T12:00:50;19.20;;;10.50;;
10699;SDS011;5401;41.986;21.452;2022-11-03T12:03:21;18.13;;;9.23;;
10699;SDS011;5401;41.986;21.452;2022-11-03T12:05:51;18.17;;;9.63;;
10699;SDS011;5401;41.986;21.452;2022-11-03T12:08:19;19.97;;;9.60;;
10699;SDS011;5401;41.986;21.452;2022-11-03T12:10:51;23.40;;;9.20;;
10699;SDS011;5401;41.986;21.452;2022-11-03T12:13:35;19.27;;;10.03;;
10699;SDS011;5401;41.986;21.452;2022-11-03T12:16:28;17.87;;;8.90;;
10699;SDS011;5401;41.986;21.452;2022-11-03T12:22:02;21.83;;;9.87;;
10699;SDS011;5401;41.986;21.452;2022-11-03T12:27:39;24.73;;;12.00;;
10699;SDS011;5401;41.986;21.452;2022-11-03T12:30:12;18.17;;;9.43;;
10699;SDS011;5401;41.986;21.452;2022-11-03T12:32:42;20.23;;;12.10;;
10699;SDS011;5401;41.986;21.452;2022-11-03T12:35:11;17.87;;;9.83;;
10699;SDS011;5401;41.986;21.452;2022-11-03T12:37:39;15.10;;;9.03;;
10699;SDS011;5401;41.986;21.452;2022-11-03T12:40:08;23.37;;;10.27;;
10699;SDS011;5401;41.986;21.452;2022-11-03T12:42:38;16.07;;;8.80;;
10699;SDS011;5401;41.986;21.452;2022-11-03T12:45:06;11.83;;;7.87;;
10699;SDS011;5401;41.986;21.452;2022-11-03T12:47:34;17.80;;;9.27;;
10699;SDS011;5401;41.986;21.452;2022-11-03T12:50:03;19.43;;;9.07;;
10699;SDS011;5401;41.986;21.452;2022-11-03T12:52:31;21.70;;;10.03;;
10699;SDS011;5401;41.986;21.452;2022-11-03T12:54:58;22.23;;;10.40;;
10699;SDS011;5401;41.986;21.452;2022-11-03T12:57:26;22.30;;;10.37;;
10699;SDS011;5401;41.986;21.452;2022-11-03T12:59:53;18.83;;;10.07;;
10699;SDS011;5401;41.986;21.452;2022-11-03T13:02:21;26.00;;;11.47;;
10699;SDS011;5401;41.986;21.452;2022-11-03T13:04:48;19.53;;;12.63;;
10699;SDS011;5401;41.986;21.452;2022-11-03T13:07:17;24.07;;;12.47;;
10699;SDS011;5401;41.986;21.452;2022-11-03T13:09:44;24.43;;;12.47;;
10699;SDS011;5401;41.986;21.452;2022-11-03T13:12:12;20.47;;;13.83;;
10699;SDS011;5401;41.986;21.452;2022-11-03T13:14:58;20.33;;;12.03;;
10699;SDS011;5401;41.986;21.452;2022-11-03T13:17:27;20.20;;;13.00;;
10699;SDS011;5401;41.986;21.452;2022-11-03T13:19:54;22.73;;;12.43;;
10699;SDS011;5401;41.986;21.452;2022-11-03T13:22:23;26.60;;;13.23;;
10699;SDS011;5401;41.986;21.452;2022-11-03T13:24:51;23.97;;;12.73;;
10699;SDS011;5401;41.986;21.452;2022-11-03T13:27:18;27.70;;;13.53;;
10699;SDS011;5401;41.986;21.452;2022-11-03T13:29:46;22.97;;;11.77;;
10699;SDS011;5401;41.986;21.452;2022-11-03T13:32:13;22.47;;;12.47;;
10699;SDS011;5401;41.986;21.452;2022-11-03T13:34:41;17.97;;;12.90;;
10699;SDS011;5401;41.986;21.452;2022-11-03T13:37:08;20.37;;;12.67;;
10699;SDS011;5401;41.986;21.452;2022-11-03T13:39:37;26.13;;;12.97;;
10699;SDS011;5401;41.986;21.452;2022-11-03T13:42:05;20.47;;;12.67;;
10699;SDS011;5401;41.986;21.452;2022-11-03T13:44:32;25.53;;;12.83;;
10699;SDS011;5401;41.986;21.452;2022-11-03T13:47:00;18.93;;;11.47;;
10699;SDS011;5401;41.986;21.452;2022-11-03T13:49:28;27.93;;;13.27;;
10699;SDS011;5401;41.986;21.452;2022-11-03T13:51:56;25.03;;;13.37;;
10699;SDS011;5401;41.986;21.452;2022-11-03T13:54:23;17.83;;;11.33;;
10699;SDS011;5401;41.986;21.452;2022-11-03T13:56:52;22.17;;;12.23;;
10699;SDS011;5401;41.986;21.452;2022-11-03T13:59:20;18.57;;;12.23;;
10699;SDS011;5401;41.986;21.452;2022-11-03T14:01:47;19.53;;;10.90;;
10699;SDS011;5401;41.986;21.452;2022-11-03T14:04:15;23.02;;;11.07;;
10699;SDS011;5401;41.986;21.452;2022-11-03T14:06:42;21.70;;;11.67;;
10699;SDS011;5401;41.986;21.452;2022-11-03T14:09:10;18.43;;;11.40;;
10699;SDS011;5401;41.986;21.452;2022-11-03T14:11:37;20.43;;;11.80;;
10699;SDS011;5401;41.986;21.452;2022-11-03T14:14:23;23.63;;;13.67;;
10699;SDS011;5401;41.986;21.452;2022-11-03T14:16:51;19.50;;;11.57;;
10699;SDS011;5401;41.986;21.452;2022-11-03T14:19:18;29.00;;;11.63;;
10699;SDS011;5401;41.986;21.452;2022-11-03T14:21:46;21.73;;;12.17;;
10699;SDS011;5401;41.986;21.452;2022-11-03T14:24:13;15.87;;;11.37;;
10699;SDS011;5401;41.986;21.452;2022-11-03T14:26:41;17.17;;;10.97;;
10699;SDS011;5401;41.986;21.452;2022-11-03T14:29:08;20.53;;;11.80;;
10699;SDS011;5401;41.986;21.452;2022-11-03T14:31:38;23.80;;;12.23;;
10699;SDS011;5401;41.986;21.452;2022-11-03T14:34:06;25.00;;;11.23;;
10699;SDS011;5401;41.986;21.452;2022-11-03T14:36:33;18.30;;;11.27;;
10699;SDS011;5401;41.986;21.452;2022-11-03T14:39:01;22.47;;;12.13;;
10699;SDS011;5401;41.986;21.452;2022-11-03T14:41:29;19.77;;;10.97;;
10699;SDS011;5401;41.986;21.452;2022-11-03T14:44:13;23.60;;;12.40;;
10699;SDS011;5401;41.986;21.452;2022-11-03T14:46:42;21.23;;;13.23;;
10699;SDS011;5401;41.986;21.452;2022-11-03T14:49:10;28.47;;;13.50;;
10699;SDS011;5401;41.986;21.452;2022-11-03T14:51:37;27.63;;;12.13;;
10699;SDS011;5401;41.986;21.452;2022-11-03T14:54:05;29.83;;;13.80;;
10699;SDS011;5401;41.986;21.452;2022-11-03T14:56:32;21.43;;;11.77;;
10699;SDS011;5401;41.986;21.452;2022-11-03T14:59:00;21.93;;;11.50;;
10699;SDS011;5401;41.986;21.452;2022-11-03T15:01:27;27.87;;;15.67;;
10699;SDS011;5401;41.986;21.452;2022-11-03T15:03:56;29.33;;;14.10;;
10699;SDS011;5401;41.986;21.452;2022-11-03T15:06:24;18.37;;;13.53;;
10699;SDS011;5401;41.986;21.452;2022-11-03T15:08:51;24.53;;;14.30;;
10699;SDS011;5401;41.986;21.452;2022-11-03T15:11:19;28.27;;;14.73;;